sensor_id;sensor_type;location;lat;lon;timestamp;P1;durP1;ratioP1;P2;durP2;ratioP2
19891;SDS011;10108;50.142;8.724;2023-02-15T00:00:34;34.58;;;19.38;;
19891;SDS011;10108;50.142;8.724;2023-02-15T00:03:00;34.38;;;19.27;;
19891;SDS011;10108;50.142;8.724;2023-02-15T00:05:26;34.83;;;18.80;;
19891;SDS011;10108;50.142;8.724;2023-02-15T00:07:54;39.35;;;18.60;;
19891;SDS011;10108;50.142;8.724;2023-02-15T00:10:20;38.00;;;19.27;;
19891;SDS011;10108;50.142;8.724;2023-02-15T00:12:46;35.55;;;19.25;;
19891;SDS011;10108;50.142;8.724;2023-02-15T00:15:13;33.63;;;18.88;;
19891;SDS011;10108;50.142;8.724;2023-02-15T00:17:39;34.38;;;18.75;;
19891;SDS011;10108;50.142;8.724;2023-02-15T00:20:05;33.67;;;18.17;;
19891;SDS011;10108;50.142;8.724;2023-02-15T00:22:32;31.85;;;17.83;;
19891;SDS011;10108;50.142;8.724;2023-02-15T00:24:58;33.10;;;18.40;;
19891;SDS011;10108;50.142;8.724;2023-02-15T00:27:24;34.38;;;18.38;;
19891;SDS011;10108;50.142;8.724;2023-02-15T00:29:50;34.22;;;19.15;;
19891;SDS011;10108;50.142;8.724;2023-02-15T00:32:16;31.88;;;17.50;;
19891;SDS011;10108;50.142;8.724;2023-02-15T00:34:42;32.20;;;18.33;;
19891;SDS011;10108;50.142;8.724;2023-02-15T00:37:08;35.35;;;19.17;;
19891;SDS011;10108;50.142;8.724;2023-02-15T00:39:34;35.72;;;19.85;;
19891;SDS011;10108;50.142;8.724;2023-02-15T00:42:01;36.92;;;19.65;;
19891;SDS011;10108;50.142;8.724;2023-02-15T00:44:27;38.78;;;20.08;;
19891;SDS011;10108;50.142;8.724;2023-02-15T00:46:55;33.78;;;19.00;;
19891;SDS011;10108;50.142;8.724;2023-02-15T00:49:21;33.90;;;18.50;;
19891;SDS011;10108;50.142;8.724;2023-02-15T00:51:47;35.15;;;19.10;;
19891;SDS011;10108;50.142;8.724;2023-02-15T00:54:13;41.38;;;20.75;;
19891;SDS011;10108;50.142;8.724;2023-02-15T00:56:40;39.00;;;21.00;;
19891;SDS011;10108;50.142;8.724;2023-02-15T00:59:08;42.38;;;20.63;;
19891;SDS011;10108;50.142;8.724;2023-02-15T01:01:34;41.20;;;21.10;;
19891;SDS011;10108;50.142;8.724;2023-02-15T01:04:01;39.92;;;20.90;;
19891;SDS011;10108;50.142;8.724;2023-02-15T01:06:29;37.95;;;20.70;;
19891;SDS011;10108;50.142;8.724;2023-02-15T01:08:55;38.10;;;20.92;;
19891;SDS011;10108;50.142;8.724;2023-02-15T01:11:22;40.47;;;21.17;;
19891;SDS011;10108;50.142;8.724;2023-02-15T01:13:51;43.88;;;21.58;;
19891;SDS011;10108;50.142;8.724;2023-02-15T01:16:19;43.03;;;22.08;;
19891;SDS011;10108;50.142;8.724;2023-02-15T01:18:45;44.90;;;22.17;;
19891;SDS011;10108;50.142;8.724;2023-02-15T01:21:18;43.72;;;22.60;;
19891;SDS011;10108;50.142;8.724;2023-02-15T01:23:45;43.47;;;22.90;;
19891;SDS011;10108;50.142;8.724;2023-02-15T01:26:12;43.67;;;21.90;;
19891;SDS011;10108;50.142;8.724;2023-02-15T01:28:38;41.85;;;21.45;;
19891;SDS011;10108;50.142;8.724;2023-02-15T01:31:06;42.00;;;21.15;;
19891;SDS011;10108;50.142;8.724;2023-02-15T01:33:37;43.40;;;21.20;;
19891;SDS011;10108;50.142;8.724;2023-02-15T01:36:03;44.55;;;22.38;;
19891;SDS011;10108;50.142;8.724;2023-02-15T01:38:31;44.22;;;22.20;;
19891;SDS011;10108;50.142;8.724;2023-02-15T01:40:58;42.67;;;21.80;;
19891;SDS011;10108;50.142;8.724;2023-02-15T01:43:45;39.42;;;21.05;;
19891;SDS011;10108;50.142;8.724;2023-02-15T01:46:14;43.95;;;21.83;;
19891;SDS011;10108;50.142;8.724;2023-02-15T01:48:46;44.70;;;22.25;;
19891;SDS011;10108;50.142;8.724;2023-02-15T01:51:15;44.47;;;22.23;;
19891;SDS011;10108;50.142;8.724;2023-02-15T01:53:48;38.85;;;20.73;;
19891;SDS011;10108;50.142;8.724;2023-02-15T01:56:29;42.28;;;20.95;;
19891;SDS011;10108;50.142;8.724;2023-02-15T01:58:59;43.80;;;22.08;;
19891;SDS011;10108;50.142;8.724;2023-02-15T02:01:31;43.20;;;22.63;;
19891;SDS011;10108;50.142;8.724;2023-02-15T02:04:00;42.33;;;22.02;;
19891;SDS011;10108;50.142;8.724;2023-02-15T02:06:49;43.38;;;21.58;;
19891;SDS011;10108;50.142;8.724;2023-02-15T02:09:16;42.05;;;22.13;;
19891;SDS011;10108;50.142;8.724;2023-02-15T02:11:43;42.88;;;21.85;;
19891;SDS011;10108;50.142;8.724;2023-02-15T02:14:11;45.72;;;23.08;;
19891;SDS011;10108;50.142;8.724;2023-02-15T02:16:40;42.30;;;21.55;;
19891;SDS011;10108;50.142;8.724;2023-02-15T02:19:19;44.85;;;22.30;;
19891;SDS011;10108;50.142;8.724;2023-02-15T02:22:32;40.65;;;21.23;;
19891;SDS011;10108;50.142;8.724;2023-02-15T02:25:23;42.85;;;22.92;;
19891;SDS011;10108;50.142;8.724;2023-02-15T02:31:09;44.40;;;21.55;;
19891;SDS011;10108;50.142;8.724;2023-02-15T02:39:40;45.55;;;22.80;;
19891;SDS011;10108;50.142;8.724;2023-02-15T02:42:33;40.65;;;21.10;;
19891;SDS011;10108;50.142;8.724;2023-02-15T02:47:46;41.95;;;21.90;;
19891;SDS011;10108;50.142;8.724;2023-02-15T02:50:17;46.67;;;23.35;;
19891;SDS011;10108;50.142;8.724;2023-02-15T02:52:48;42.70;;;22.17;;
19891;SDS011;10108;50.142;8.724;2023-02-15T02:55:18;46.90;;;23.25;;
19891;SDS011;10108;50.142;8.724;2023-02-15T03:00:40;44.78;;;23.45;;
19891;SDS011;10108;50.142;8.724;2023-02-15T03:03:25;47.67;;;23.88;;
19891;SDS011;10108;50.142;8.724;2023-02-15T03:05:57;46.72;;;22.58;;
19891;SDS011;10108;50.142;8.724;2023-02-15T03:08:50;42.72;;;21.80;;
19891;SDS011;10108;50.142;8.724;2023-02-15T03:11:17;44.25;;;21.92;;
19891;SDS011;10108;50.142;8.724;2023-02-15T03:13:44;45.35;;;22.75;;
19891;SDS011;10108;50.142;8.724;2023-02-15T03:16:13;46.05;;;23.23;;
19891;SDS011;10108;50.142;8.724;2023-02-15T03:21:34;41.30;;;21.65;;
19891;SDS011;10108;50.142;8.724;2023-02-15T03:24:10;43.83;;;21.55;;
19891;SDS011;10108;50.142;8.724;2023-02-15T03:26:41;49.38;;;23.65;;
19891;SDS011;10108;50.142;8.724;2023-02-15T03:29:10;42.47;;;21.73;;
19891;SDS011;10108;50.142;8.724;2023-02-15T03:31:39;44.40;;;22.95;;
19891;SDS011;10108;50.142;8.724;2023-02-15T03:34:09;43.42;;;22.42;;
19891;SDS011;10108;50.142;8.724;2023-02-15T03:36:50;50.85;;;21.63;;
19891;SDS011;10108;50.142;8.724;2023-02-15T03:39:35;44.53;;;22.00;;
19891;SDS011;10108;50.142;8.724;2023-02-15T03:42:10;45.33;;;21.92;;
19891;SDS011;10108;50.142;8.724;2023-02-15T03:47:33;45.55;;;22.02;;
19891;SDS011;10108;50.142;8.724;2023-02-15T03:50:05;47.28;;;22.10;;
19891;SDS011;10108;50.142;8.724;2023-02-15T03:52:57;45.03;;;22.70;;
19891;SDS011;10108;50.142;8.724;2023-02-15T03:55:25;46.58;;;23.45;;
19891;SDS011;10108;50.142;8.724;2023-02-15T03:57:52;42.90;;;21.85;;
19891;SDS011;10108;50.142;8.724;2023-02-15T04:01:00;45.25;;;22.88;;
19891;SDS011;10108;50.142;8.724;2023-02-15T04:03:56;49.53;;;22.90;;
19891;SDS011;10108;50.142;8.724;2023-02-15T04:06:26;45.38;;;22.92;;
19891;SDS011;10108;50.142;8.724;2023-02-15T04:08:52;46.60;;;22.90;;
19891;SDS011;10108;50.142;8.724;2023-02-15T04:11:37;48.50;;;23.35;;
19891;SDS011;10108;50.142;8.724;2023-02-15T04:14:03;45.28;;;22.33;;
19891;SDS011;10108;50.142;8.724;2023-02-15T04:16:49;49.65;;;23.58;;
19891;SDS011;10108;50.142;8.724;2023-02-15T04:19:15;48.78;;;23.15;;
19891;SDS011;10108;50.142;8.724;2023-02-15T04:22:00;50.15;;;22.83;;
19891;SDS011;10108;50.142;8.724;2023-02-15T04:24:45;46.58;;;21.67;;
19891;SDS011;10108;50.142;8.724;2023-02-15T04:27:30;50.40;;;23.70;;
19891;SDS011;10108;50.142;8.724;2023-02-15T04:29:56;49.92;;;22.80;;
19891;SDS011;10108;50.142;8.724;2023-02-15T04:32:22;48.83;;;23.13;;
19891;SDS011;10108;50.142;8.724;2023-02-15T04:34:48;49.88;;;23.30;;
19891;SDS011;10108;50.142;8.724;2023-02-15T04:37:14;46.65;;;21.77;;
19891;SDS011;10108;50.142;8.724;2023-02-15T04:39:40;50.50;;;23.73;;
19891;SDS011;10108;50.142;8.724;2023-02-15T04:42:06;44.05;;;21.88;;
19891;SDS011;10108;50.142;8.724;2023-02-15T04:44:32;50.92;;;23.75;;
19891;SDS011;10108;50.142;8.724;2023-02-15T04:46:58;47.08;;;23.55;;
19891;SDS011;10108;50.142;8.724;2023-02-15T04:49:24;47.30;;;22.05;;
19891;SDS011;10108;50.142;8.724;2023-02-15T04:51:51;53.92;;;23.77;;
19891;SDS011;10108;50.142;8.724;2023-02-15T04:54:17;47.90;;;23.02;;
19891;SDS011;10108;50.142;8.724;2023-02-15T04:56:43;49.30;;;23.42;;
19891;SDS011;10108;50.142;8.724;2023-02-15T04:59:10;55.47;;;23.58;;
19891;SDS011;10108;50.142;8.724;2023-02-15T05:01:36;49.28;;;23.58;;
19891;SDS011;10108;50.142;8.724;2023-02-15T05:04:03;53.42;;;25.48;;
19891;SDS011;10108;50.142;8.724;2023-02-15T05:06:29;48.65;;;24.35;;
19891;SDS011;10108;50.142;8.724;2023-02-15T05:08:55;59.38;;;25.30;;
19891;SDS011;10108;50.142;8.724;2023-02-15T05:11:21;51.58;;;23.90;;
19891;SDS011;10108;50.142;8.724;2023-02-15T05:13:47;48.28;;;23.33;;
19891;SDS011;10108;50.142;8.724;2023-02-15T05:16:13;56.17;;;25.27;;
19891;SDS011;10108;50.142;8.724;2023-02-15T05:18:39;53.28;;;25.33;;
19891;SDS011;10108;50.142;8.724;2023-02-15T05:21:05;51.15;;;24.88;;
19891;SDS011;10108;50.142;8.724;2023-02-15T05:23:31;52.70;;;25.20;;
19891;SDS011;10108;50.142;8.724;2023-02-15T05:25:57;57.20;;;26.20;;
19891;SDS011;10108;50.142;8.724;2023-02-15T05:28:42;50.58;;;24.10;;
19891;SDS011;10108;50.142;8.724;2023-02-15T05:31:16;56.53;;;24.90;;
19891;SDS011;10108;50.142;8.724;2023-02-15T05:33:43;54.90;;;24.60;;
19891;SDS011;10108;50.142;8.724;2023-02-15T05:36:10;53.85;;;25.15;;
19891;SDS011;10108;50.142;8.724;2023-02-15T05:38:37;57.42;;;25.35;;
19891;SDS011;10108;50.142;8.724;2023-02-15T05:41:03;59.17;;;27.30;;
19891;SDS011;10108;50.142;8.724;2023-02-15T05:43:30;56.42;;;25.63;;
19891;SDS011;10108;50.142;8.724;2023-02-15T05:45:57;55.78;;;26.10;;
19891;SDS011;10108;50.142;8.724;2023-02-15T05:48:23;53.53;;;24.48;;
19891;SDS011;10108;50.142;8.724;2023-02-15T05:50:58;54.80;;;25.85;;
19891;SDS011;10108;50.142;8.724;2023-02-15T05:53:33;58.95;;;26.20;;
19891;SDS011;10108;50.142;8.724;2023-02-15T05:56:01;62.50;;;26.98;;
19891;SDS011;10108;50.142;8.724;2023-02-15T05:58:29;55.70;;;26.10;;
19891;SDS011;10108;50.142;8.724;2023-02-15T06:00:57;59.35;;;27.92;;
19891;SDS011;10108;50.142;8.724;2023-02-15T06:03:24;64.50;;;27.17;;
19891;SDS011;10108;50.142;8.724;2023-02-15T06:05:51;57.90;;;27.13;;
19891;SDS011;10108;50.142;8.724;2023-02-15T06:08:18;59.78;;;26.42;;
19891;SDS011;10108;50.142;8.724;2023-02-15T06:10:47;60.70;;;27.05;;
19891;SDS011;10108;50.142;8.724;2023-02-15T06:13:13;65.05;;;28.52;;
19891;SDS011;10108;50.142;8.724;2023-02-15T06:15:39;54.80;;;24.60;;
19891;SDS011;10108;50.142;8.724;2023-02-15T06:18:05;53.67;;;24.23;;
19891;SDS011;10108;50.142;8.724;2023-02-15T06:20:31;55.97;;;26.23;;
19891;SDS011;10108;50.142;8.724;2023-02-15T06:22:57;58.42;;;26.20;;
19891;SDS011;10108;50.142;8.724;2023-02-15T06:25:24;50.60;;;24.17;;
19891;SDS011;10108;50.142;8.724;2023-02-15T06:27:51;52.58;;;25.42;;
19891;SDS011;10108;50.142;8.724;2023-02-15T06:30:17;49.08;;;23.98;;
19891;SDS011;10108;50.142;8.724;2023-02-15T06:32:43;52.45;;;23.58;;
19891;SDS011;10108;50.142;8.724;2023-02-15T06:35:09;49.33;;;23.63;;
19891;SDS011;10108;50.142;8.724;2023-02-15T06:37:37;52.15;;;24.40;;
19891;SDS011;10108;50.142;8.724;2023-02-15T06:40:03;54.90;;;24.35;;
19891;SDS011;10108;50.142;8.724;2023-02-15T06:42:29;50.67;;;24.05;;
19891;SDS011;10108;50.142;8.724;2023-02-15T06:44:56;49.17;;;23.08;;
19891;SDS011;10108;50.142;8.724;2023-02-15T06:47:22;42.90;;;22.67;;
19891;SDS011;10108;50.142;8.724;2023-02-15T06:49:48;44.25;;;21.48;;
19891;SDS011;10108;50.142;8.724;2023-02-15T06:52:14;47.58;;;23.98;;
19891;SDS011;10108;50.142;8.724;2023-02-15T06:54:40;54.30;;;24.17;;
19891;SDS011;10108;50.142;8.724;2023-02-15T06:57:06;49.97;;;23.50;;
19891;SDS011;10108;50.142;8.724;2023-02-15T06:59:32;48.88;;;24.13;;
19891;SDS011;10108;50.142;8.724;2023-02-15T07:01:58;51.97;;;24.02;;
19891;SDS011;10108;50.142;8.724;2023-02-15T07:04:24;51.90;;;24.48;;
19891;SDS011;10108;50.142;8.724;2023-02-15T07:06:50;48.13;;;23.42;;
19891;SDS011;10108;50.142;8.724;2023-02-15T07:09:17;48.97;;;22.63;;
19891;SDS011;10108;50.142;8.724;2023-02-15T07:11:43;51.00;;;23.23;;
19891;SDS011;10108;50.142;8.724;2023-02-15T07:14:27;46.35;;;22.33;;
19891;SDS011;10108;50.142;8.724;2023-02-15T07:16:54;48.20;;;23.25;;
19891;SDS011;10108;50.142;8.724;2023-02-15T07:19:20;48.47;;;23.83;;
19891;SDS011;10108;50.142;8.724;2023-02-15T07:21:46;46.72;;;22.13;;
19891;SDS011;10108;50.142;8.724;2023-02-15T07:24:12;48.45;;;23.30;;
19891;SDS011;10108;50.142;8.724;2023-02-15T07:26:39;45.17;;;21.77;;
19891;SDS011;10108;50.142;8.724;2023-02-15T07:29:05;41.85;;;21.15;;
19891;SDS011;10108;50.142;8.724;2023-02-15T07:31:31;39.83;;;20.80;;
19891;SDS011;10108;50.142;8.724;2023-02-15T07:33:57;46.58;;;22.00;;
19891;SDS011;10108;50.142;8.724;2023-02-15T07:36:23;45.70;;;21.23;;
19891;SDS011;10108;50.142;8.724;2023-02-15T07:38:50;45.83;;;22.20;;
19891;SDS011;10108;50.142;8.724;2023-02-15T07:41:16;42.60;;;22.23;;
19891;SDS011;10108;50.142;8.724;2023-02-15T07:43:43;45.67;;;21.98;;
19891;SDS011;10108;50.142;8.724;2023-02-15T07:46:11;50.22;;;22.90;;
19891;SDS011;10108;50.142;8.724;2023-02-15T07:48:39;47.95;;;22.50;;
19891;SDS011;10108;50.142;8.724;2023-02-15T07:51:07;46.30;;;22.55;;
19891;SDS011;10108;50.142;8.724;2023-02-15T07:53:35;44.65;;;21.02;;
19891;SDS011;10108;50.142;8.724;2023-02-15T07:56:03;46.15;;;22.90;;
19891;SDS011;10108;50.142;8.724;2023-02-15T07:58:32;43.33;;;21.40;;
19891;SDS011;10108;50.142;8.724;2023-02-15T08:01:17;44.03;;;22.10;;
19891;SDS011;10108;50.142;8.724;2023-02-15T08:03:45;43.83;;;21.40;;
19891;SDS011;10108;50.142;8.724;2023-02-15T08:06:11;42.55;;;20.92;;
19891;SDS011;10108;50.142;8.724;2023-02-15T08:08:39;42.45;;;19.55;;
19891;SDS011;10108;50.142;8.724;2023-02-15T08:13:52;47.40;;;21.95;;
19891;SDS011;10108;50.142;8.724;2023-02-15T08:16:31;41.45;;;20.52;;
19891;SDS011;10108;50.142;8.724;2023-02-15T08:19:04;45.50;;;20.67;;
19891;SDS011;10108;50.142;8.724;2023-02-15T08:21:35;42.63;;;19.75;;
19891;SDS011;10108;50.142;8.724;2023-02-15T08:24:03;35.75;;;19.10;;
19891;SDS011;10108;50.142;8.724;2023-02-15T08:26:31;38.13;;;18.73;;
19891;SDS011;10108;50.142;8.724;2023-02-15T08:28:58;35.53;;;18.80;;
19891;SDS011;10108;50.142;8.724;2023-02-15T08:31:25;36.30;;;18.00;;
19891;SDS011;10108;50.142;8.724;2023-02-15T08:33:52;36.10;;;18.38;;
19891;SDS011;10108;50.142;8.724;2023-02-15T08:36:21;34.40;;;18.20;;
19891;SDS011;10108;50.142;8.724;2023-02-15T08:38:48;34.15;;;18.25;;
19891;SDS011;10108;50.142;8.724;2023-02-15T08:41:24;33.83;;;18.15;;
19891;SDS011;10108;50.142;8.724;2023-02-15T08:43:53;34.55;;;17.67;;
19891;SDS011;10108;50.142;8.724;2023-02-15T08:46:21;33.95;;;17.85;;
19891;SDS011;10108;50.142;8.724;2023-02-15T08:48:48;30.92;;;16.40;;
19891;SDS011;10108;50.142;8.724;2023-02-15T08:51:19;32.92;;;17.33;;
19891;SDS011;10108;50.142;8.724;2023-02-15T08:53:47;28.83;;;16.83;;
19891;SDS011;10108;50.142;8.724;2023-02-15T08:56:15;31.55;;;16.63;;
19891;SDS011;10108;50.142;8.724;2023-02-15T08:58:43;30.92;;;16.80;;
19891;SDS011;10108;50.142;8.724;2023-02-15T09:03:37;29.05;;;16.10;;
19891;SDS011;10108;50.142;8.724;2023-02-15T09:06:04;28.80;;;16.48;;
19891;SDS011;10108;50.142;8.724;2023-02-15T09:08:31;28.20;;;15.52;;
19891;SDS011;10108;50.142;8.724;2023-02-15T09:13:34;28.40;;;14.63;;
19891;SDS011;10108;50.142;8.724;2023-02-15T09:16:01;27.77;;;15.48;;
19891;SDS011;10108;50.142;8.724;2023-02-15T09:18:29;26.08;;;14.88;;
19891;SDS011;10108;50.142;8.724;2023-02-15T09:20:56;27.65;;;14.77;;
19891;SDS011;10108;50.142;8.724;2023-02-15T09:23:22;25.98;;;14.13;;
19891;SDS011;10108;50.142;8.724;2023-02-15T09:25:49;25.20;;;14.77;;
19891;SDS011;10108;50.142;8.724;2023-02-15T09:28:15;27.90;;;14.63;;
19891;SDS011;10108;50.142;8.724;2023-02-15T09:30:41;27.45;;;15.10;;
19891;SDS011;10108;50.142;8.724;2023-02-15T09:33:07;26.10;;;14.88;;
19891;SDS011;10108;50.142;8.724;2023-02-15T09:35:33;28.15;;;14.43;;
19891;SDS011;10108;50.142;8.724;2023-02-15T09:37:59;25.80;;;14.35;;
19891;SDS011;10108;50.142;8.724;2023-02-15T09:40:25;28.63;;;15.55;;
19891;SDS011;10108;50.142;8.724;2023-02-15T09:45:48;25.92;;;14.05;;
19891;SDS011;10108;50.142;8.724;2023-02-15T09:48:38;28.55;;;14.20;;
19891;SDS011;10108;50.142;8.724;2023-02-15T09:54:06;25.13;;;14.13;;
19891;SDS011;10108;50.142;8.724;2023-02-15T09:56:45;24.25;;;13.25;;
19891;SDS011;10108;50.142;8.724;2023-02-15T10:07:43;25.40;;;13.48;;
19891;SDS011;10108;50.142;8.724;2023-02-15T10:13:05;24.48;;;13.52;;
19891;SDS011;10108;50.142;8.724;2023-02-15T10:18:42;22.13;;;13.40;;
19891;SDS011;10108;50.142;8.724;2023-02-15T10:21:37;26.17;;;12.77;;
19891;SDS011;10108;50.142;8.724;2023-02-15T10:27:11;22.38;;;13.48;;
19891;SDS011;10108;50.142;8.724;2023-02-15T10:29:40;24.20;;;13.45;;
19891;SDS011;10108;50.142;8.724;2023-02-15T10:32:23;26.67;;;13.68;;
19891;SDS011;10108;50.142;8.724;2023-02-15T10:37:42;24.25;;;13.93;;
19891;SDS011;10108;50.142;8.724;2023-02-15T10:40:32;26.52;;;14.82;;
19891;SDS011;10108;50.142;8.724;2023-02-15T10:46:08;25.15;;;14.07;;
19891;SDS011;10108;50.142;8.724;2023-02-15T10:48:50;26.70;;;14.27;;
19891;SDS011;10108;50.142;8.724;2023-02-15T10:51:39;27.77;;;15.27;;
19891;SDS011;10108;50.142;8.724;2023-02-15T10:54:13;30.40;;;16.45;;
19891;SDS011;10108;50.142;8.724;2023-02-15T10:59:29;30.33;;;15.50;;
19891;SDS011;10108;50.142;8.724;2023-02-15T11:04:39;28.80;;;15.45;;
19891;SDS011;10108;50.142;8.724;2023-02-15T11:07:37;30.38;;;14.65;;
19891;SDS011;10108;50.142;8.724;2023-02-15T11:12:53;27.48;;;15.30;;
19891;SDS011;10108;50.142;8.724;2023-02-15T11:15:33;28.48;;;14.80;;
19891;SDS011;10108;50.142;8.724;2023-02-15T11:18:11;31.98;;;16.58;;
19891;SDS011;10108;50.142;8.724;2023-02-15T11:20:43;29.20;;;14.70;;
19891;SDS011;10108;50.142;8.724;2023-02-15T11:23:18;29.38;;;15.40;;
19891;SDS011;10108;50.142;8.724;2023-02-15T11:25:48;28.75;;;15.60;;
19891;SDS011;10108;50.142;8.724;2023-02-15T11:28:26;29.30;;;15.50;;
19891;SDS011;10108;50.142;8.724;2023-02-15T11:30:58;32.50;;;16.35;;
19891;SDS011;10108;50.142;8.724;2023-02-15T11:33:37;29.70;;;15.77;;
19891;SDS011;10108;50.142;8.724;2023-02-15T11:36:10;33.70;;;17.05;;
19891;SDS011;10108;50.142;8.724;2023-02-15T11:38:42;29.42;;;16.20;;
19891;SDS011;10108;50.142;8.724;2023-02-15T11:41:11;30.13;;;16.33;;
19891;SDS011;10108;50.142;8.724;2023-02-15T11:43:44;29.85;;;15.80;;
19891;SDS011;10108;50.142;8.724;2023-02-15T11:46:15;37.88;;;18.40;;
19891;SDS011;10108;50.142;8.724;2023-02-15T11:48:41;31.42;;;16.35;;
19891;SDS011;10108;50.142;8.724;2023-02-15T11:51:08;33.85;;;17.30;;
19891;SDS011;10108;50.142;8.724;2023-02-15T11:53:39;34.75;;;18.23;;
19891;SDS011;10108;50.142;8.724;2023-02-15T11:56:10;34.92;;;19.23;;
19891;SDS011;10108;50.142;8.724;2023-02-15T11:58:53;36.30;;;18.77;;
19891;SDS011;10108;50.142;8.724;2023-02-15T12:01:28;37.28;;;18.25;;
19891;SDS011;10108;50.142;8.724;2023-02-15T12:04:11;36.05;;;18.55;;
19891;SDS011;10108;50.142;8.724;2023-02-15T12:06:48;41.20;;;20.50;;
19891;SDS011;10108;50.142;8.724;2023-02-15T12:09:17;42.10;;;21.13;;
19891;SDS011;10108;50.142;8.724;2023-02-15T12:11:54;45.45;;;21.70;;
19891;SDS011;10108;50.142;8.724;2023-02-15T12:14:57;41.72;;;21.50;;
19891;SDS011;10108;50.142;8.724;2023-02-15T12:17:29;41.28;;;21.65;;
19891;SDS011;10108;50.142;8.724;2023-02-15T12:20:00;37.83;;;20.85;;
19891;SDS011;10108;50.142;8.724;2023-02-15T12:22:33;44.63;;;22.38;;
19891;SDS011;10108;50.142;8.724;2023-02-15T12:25:19;41.08;;;21.00;;
19891;SDS011;10108;50.142;8.724;2023-02-15T12:28:00;44.60;;;21.90;;
19891;SDS011;10108;50.142;8.724;2023-02-15T12:30:32;45.28;;;22.15;;
19891;SDS011;10108;50.142;8.724;2023-02-15T12:36:02;41.33;;;21.30;;
19891;SDS011;10108;50.142;8.724;2023-02-15T12:38:35;40.03;;;20.85;;
19891;SDS011;10108;50.142;8.724;2023-02-15T12:41:02;43.00;;;21.92;;
19891;SDS011;10108;50.142;8.724;2023-02-15T12:43:34;45.67;;;22.48;;
19891;SDS011;10108;50.142;8.724;2023-02-15T12:46:21;44.03;;;21.70;;
19891;SDS011;10108;50.142;8.724;2023-02-15T12:49:05;44.50;;;22.35;;
19891;SDS011;10108;50.142;8.724;2023-02-15T12:54:34;43.03;;;22.45;;
19891;SDS011;10108;50.142;8.724;2023-02-15T12:57:23;41.70;;;21.58;;
19891;SDS011;10108;50.142;8.724;2023-02-15T13:00:05;47.22;;;21.95;;
19891;SDS011;10108;50.142;8.724;2023-02-15T13:02:51;48.03;;;23.67;;
19891;SDS011;10108;50.142;8.724;2023-02-15T13:05:29;48.92;;;23.80;;
19891;SDS011;10108;50.142;8.724;2023-02-15T13:08:03;47.60;;;23.25;;
19891;SDS011;10108;50.142;8.724;2023-02-15T13:10:56;45.65;;;22.85;;
19891;SDS011;10108;50.142;8.724;2023-02-15T13:13:26;53.70;;;24.10;;
19891;SDS011;10108;50.142;8.724;2023-02-15T13:15:56;47.50;;;24.00;;
19891;SDS011;10108;50.142;8.724;2023-02-15T13:18:29;50.10;;;23.90;;
19891;SDS011;10108;50.142;8.724;2023-02-15T13:21:18;51.95;;;23.95;;
19891;SDS011;10108;50.142;8.724;2023-02-15T13:23:49;47.65;;;23.95;;
19891;SDS011;10108;50.142;8.724;2023-02-15T13:26:22;51.35;;;24.23;;
19891;SDS011;10108;50.142;8.724;2023-02-15T13:28:52;54.47;;;25.90;;
19891;SDS011;10108;50.142;8.724;2023-02-15T13:31:26;55.55;;;25.25;;
19891;SDS011;10108;50.142;8.724;2023-02-15T13:34:03;50.40;;;25.15;;
19891;SDS011;10108;50.142;8.724;2023-02-15T13:39:35;55.05;;;24.85;;
19891;SDS011;10108;50.142;8.724;2023-02-15T13:42:25;54.17;;;25.15;;
19891;SDS011;10108;50.142;8.724;2023-02-15T13:53:50;53.10;;;25.60;;
19891;SDS011;10108;50.142;8.724;2023-02-15T13:56:38;55.35;;;26.08;;
19891;SDS011;10108;50.142;8.724;2023-02-15T14:17:02;58.40;;;27.35;;
19891;SDS011;10108;50.142;8.724;2023-02-15T14:19:57;58.22;;;27.63;;
19891;SDS011;10108;50.142;8.724;2023-02-15T14:28:31;58.03;;;27.02;;
19891;SDS011;10108;50.142;8.724;2023-02-15T14:31:06;57.95;;;28.05;;
19891;SDS011;10108;50.142;8.724;2023-02-15T14:33:37;60.42;;;28.77;;
19891;SDS011;10108;50.142;8.724;2023-02-15T14:36:09;60.55;;;28.40;;
19891;SDS011;10108;50.142;8.724;2023-02-15T14:41:39;60.50;;;27.33;;
19891;SDS011;10108;50.142;8.724;2023-02-15T14:44:30;56.75;;;27.13;;
19891;SDS011;10108;50.142;8.724;2023-02-15T14:47:09;58.58;;;27.83;;
19891;SDS011;10108;50.142;8.724;2023-02-15T14:49:39;50.60;;;25.45;;
19891;SDS011;10108;50.142;8.724;2023-02-15T14:52:06;61.63;;;27.13;;
19891;SDS011;10108;50.142;8.724;2023-02-15T15:02:04;62.67;;;28.95;;
19891;SDS011;10108;50.142;8.724;2023-02-15T15:04:40;63.90;;;28.58;;
19891;SDS011;10108;50.142;8.724;2023-02-15T15:15:14;60.42;;;28.25;;
19891;SDS011;10108;50.142;8.724;2023-02-15T15:25:45;62.78;;;30.30;;
19891;SDS011;10108;50.142;8.724;2023-02-15T15:28:59;61.05;;;29.38;;
19891;SDS011;10108;50.142;8.724;2023-02-15T15:31:04;63.50;;;28.88;;
19891;SDS011;10108;50.142;8.724;2023-02-15T15:42:01;68.63;;;29.67;;
19891;SDS011;10108;50.142;8.724;2023-02-15T15:47:28;62.20;;;28.63;;
19891;SDS011;10108;50.142;8.724;2023-02-15T15:50:18;60.42;;;29.10;;
19891;SDS011;10108;50.142;8.724;2023-02-15T15:52:55;71.78;;;31.38;;
19891;SDS011;10108;50.142;8.724;2023-02-15T15:55:27;59.47;;;28.85;;
19891;SDS011;10108;50.142;8.724;2023-02-15T15:57:56;67.50;;;29.92;;
19891;SDS011;10108;50.142;8.724;2023-02-15T16:00:30;64.82;;;29.55;;
19891;SDS011;10108;50.142;8.724;2023-02-15T16:03:01;62.50;;;30.38;;
19891;SDS011;10108;50.142;8.724;2023-02-15T16:05:34;70.82;;;30.92;;
19891;SDS011;10108;50.142;8.724;2023-02-15T16:08:01;66.50;;;30.67;;
19891;SDS011;10108;50.142;8.724;2023-02-15T16:10:28;66.47;;;30.60;;
19891;SDS011;10108;50.142;8.724;2023-02-15T16:13:00;69.68;;;31.35;;
19891;SDS011;10108;50.142;8.724;2023-02-15T16:15:34;73.50;;;32.03;;
19891;SDS011;10108;50.142;8.724;2023-02-15T16:18:18;69.60;;;31.00;;
19891;SDS011;10108;50.142;8.724;2023-02-15T16:20:53;69.30;;;31.52;;
19891;SDS011;10108;50.142;8.724;2023-02-15T16:23:33;67.40;;;32.33;;
19891;SDS011;10108;50.142;8.724;2023-02-15T16:29:28;70.18;;;32.13;;
19891;SDS011;10108;50.142;8.724;2023-02-15T16:34:56;69.00;;;31.80;;
19891;SDS011;10108;50.142;8.724;2023-02-15T16:37:27;67.13;;;32.03;;
19891;SDS011;10108;50.142;8.724;2023-02-15T16:40:02;73.53;;;32.50;;
19891;SDS011;10108;50.142;8.724;2023-02-15T16:42:28;72.30;;;31.75;;
19891;SDS011;10108;50.142;8.724;2023-02-15T16:45:05;74.03;;;31.42;;
19891;SDS011;10108;50.142;8.724;2023-02-15T16:47:36;75.47;;;32.95;;
19891;SDS011;10108;50.142;8.724;2023-02-15T16:50:16;76.68;;;33.40;;
19891;SDS011;10108;50.142;8.724;2023-02-15T16:52:44;75.95;;;32.42;;
19891;SDS011;10108;50.142;8.724;2023-02-15T16:55:19;73.88;;;32.92;;
19891;SDS011;10108;50.142;8.724;2023-02-15T16:57:47;75.00;;;32.42;;
19891;SDS011;10108;50.142;8.724;2023-02-15T17:00:18;75.60;;;32.35;;
19891;SDS011;10108;50.142;8.724;2023-02-15T17:03:01;71.57;;;33.38;;
19891;SDS011;10108;50.142;8.724;2023-02-15T17:05:40;84.50;;;35.30;;
19891;SDS011;10108;50.142;8.724;2023-02-15T17:08:14;78.07;;;34.10;;
19891;SDS011;10108;50.142;8.724;2023-02-15T17:11:02;76.60;;;34.00;;
19891;SDS011;10108;50.142;8.724;2023-02-15T17:13:31;78.50;;;33.63;;
19891;SDS011;10108;50.142;8.724;2023-02-15T17:18:32;82.20;;;34.75;;
19891;SDS011;10108;50.142;8.724;2023-02-15T17:21:17;82.10;;;34.95;;